sensor_id;sensor_type;location;lat;lon;timestamp;P1;durP1;ratioP1;P2;durP2;ratioP2
489;SDS011;231;48.120;11.576;2022-12-07T00:00:20;15.20;;;14.03;;
489;SDS011;231;48.120;11.576;2022-12-07T00:02:55;15.57;;;13.60;;
489;SDS011;231;48.120;11.576;2022-12-07T00:05:22;15.50;;;12.40;;
489;SDS011;231;48.120;11.576;2022-12-07T00:07:49;14.77;;;12.90;;
489;SDS011;231;48.120;11.576;2022-12-07T00:10:16;13.60;;;12.90;;
489;SDS011;231;48.120;11.576;2022-12-07T00:12:43;14.47;;;12.87;;
489;SDS011;231;48.120;11.576;2022-12-07T00:15:10;13.20;;;12.20;;
489;SDS011;231;48.120;11.576;2022-12-07T00:17:38;12.40;;;11.80;;
489;SDS011;231;48.120;11.576;2022-12-07T00:20:05;10.17;;;9.67;;
489;SDS011;231;48.120;11.576;2022-12-07T00:22:33;12.03;;;11.43;;
489;SDS011;231;48.120;11.576;2022-12-07T00:25:00;12.90;;;12.20;;
489;SDS011;231;48.120;11.576;2022-12-07T00:27:27;12.60;;;11.80;;
489;SDS011;231;48.120;11.576;2022-12-07T00:29:54;11.93;;;11.33;;
489;SDS011;231;48.120;11.576;2022-12-07T00:32:21;14.50;;;13.80;;
489;SDS011;231;48.120;11.576;2022-12-07T00:34:49;11.93;;;11.33;;
489;SDS011;231;48.120;11.576;2022-12-07T00:37:16;12.30;;;11.70;;
489;SDS011;231;48.120;11.576;2022-12-07T00:39:43;12.77;;;12.10;;
489;SDS011;231;48.120;11.576;2022-12-07T00:42:20;13.17;;;11.30;;
489;SDS011;231;48.120;11.576;2022-12-07T00:44:47;13.10;;;12.40;;
489;SDS011;231;48.120;11.576;2022-12-07T00:47:13;10.17;;;9.67;;
489;SDS011;231;48.120;11.576;2022-12-07T00:49:40;13.43;;;12.73;;
489;SDS011;231;48.120;11.576;2022-12-07T00:52:09;13.43;;;11.53;;
489;SDS011;231;48.120;11.576;2022-12-07T00:54:36;12.00;;;11.30;;
489;SDS011;231;48.120;11.576;2022-12-07T00:57:03;11.07;;;10.47;;
489;SDS011;231;48.120;11.576;2022-12-07T00:59:30;12.23;;;11.63;;
489;SDS011;231;48.120;11.576;2022-12-07T01:01:57;12.07;;;11.43;;
489;SDS011;231;48.120;11.576;2022-12-07T01:04:24;11.73;;;11.13;;
489;SDS011;231;48.120;11.576;2022-12-07T01:06:51;12.80;;;11.60;;
489;SDS011;231;48.120;11.576;2022-12-07T01:09:19;10.30;;;9.80;;
489;SDS011;231;48.120;11.576;2022-12-07T01:11:46;10.10;;;9.60;;
489;SDS011;231;48.120;11.576;2022-12-07T01:14:13;10.37;;;9.87;;
489;SDS011;231;48.120;11.576;2022-12-07T01:16:40;11.37;;;10.77;;
489;SDS011;231;48.120;11.576;2022-12-07T01:19:07;10.93;;;9.90;;
489;SDS011;231;48.120;11.576;2022-12-07T01:21:34;10.50;;;9.93;;
489;SDS011;231;48.120;11.576;2022-12-07T01:24:03;9.37;;;8.87;;
489;SDS011;231;48.120;11.576;2022-12-07T01:26:32;11.43;;;10.83;;
489;SDS011;231;48.120;11.576;2022-12-07T01:28:59;9.93;;;9.43;;
489;SDS011;231;48.120;11.576;2022-12-07T01:31:27;10.20;;;9.47;;
489;SDS011;231;48.120;11.576;2022-12-07T01:33:55;11.63;;;9.57;;
489;SDS011;231;48.120;11.576;2022-12-07T01:36:24;10.50;;;9.70;;
489;SDS011;231;48.120;11.576;2022-12-07T01:38:54;9.90;;;9.40;;
489;SDS011;231;48.120;11.576;2022-12-07T01:41:23;10.33;;;9.67;;
489;SDS011;231;48.120;11.576;2022-12-07T01:46:44;9.80;;;9.30;;
489;SDS011;231;48.120;11.576;2022-12-07T01:49:13;11.07;;;10.47;;
489;SDS011;231;48.120;11.576;2022-12-07T01:51:43;11.37;;;10.63;;
489;SDS011;231;48.120;11.576;2022-12-07T01:54:12;12.03;;;11.17;;
489;SDS011;231;48.120;11.576;2022-12-07T01:56:42;10.53;;;9.77;;
489;SDS011;231;48.120;11.576;2022-12-07T01:59:16;11.60;;;11.00;;
489;SDS011;231;48.120;11.576;2022-12-07T02:01:44;11.43;;;10.83;;
489;SDS011;231;48.120;11.576;2022-12-07T02:04:11;11.30;;;10.70;;
489;SDS011;231;48.120;11.576;2022-12-07T02:06:39;11.50;;;10.17;;
489;SDS011;231;48.120;11.576;2022-12-07T02:09:07;11.17;;;10.57;;
489;SDS011;231;48.120;11.576;2022-12-07T02:11:34;10.53;;;9.97;;
489;SDS011;231;48.120;11.576;2022-12-07T02:14:01;10.20;;;9.70;;
489;SDS011;231;48.120;11.576;2022-12-07T02:16:31;11.07;;;9.63;;
489;SDS011;231;48.120;11.576;2022-12-07T02:19:14;10.53;;;9.97;;
489;SDS011;231;48.120;11.576;2022-12-07T02:22:12;10.97;;;10.37;;
489;SDS011;231;48.120;11.576;2022-12-07T02:24:57;9.73;;;9.23;;
489;SDS011;231;48.120;11.576;2022-12-07T02:27:36;10.07;;;9.57;;
489;SDS011;231;48.120;11.576;2022-12-07T02:30:11;10.60;;;10.03;;
489;SDS011;231;48.120;11.576;2022-12-07T02:32:41;9.80;;;9.30;;
489;SDS011;231;48.120;11.576;2022-12-07T02:35:14;10.13;;;9.63;;
489;SDS011;231;48.120;11.576;2022-12-07T02:37:47;11.40;;;9.70;;
489;SDS011;231;48.120;11.576;2022-12-07T02:40:23;11.67;;;11.07;;
489;SDS011;231;48.120;11.576;2022-12-07T02:42:55;10.33;;;9.77;;
489;SDS011;231;48.120;11.576;2022-12-07T02:45:29;10.67;;;10.13;;
489;SDS011;231;48.120;11.576;2022-12-07T02:47:57;9.60;;;9.10;;
489;SDS011;231;48.120;11.576;2022-12-07T02:50:26;11.43;;;10.83;;
489;SDS011;231;48.120;11.576;2022-12-07T02:52:54;11.03;;;10.47;;
489;SDS011;231;48.120;11.576;2022-12-07T02:55:23;11.03;;;10.43;;
489;SDS011;231;48.120;11.576;2022-12-07T02:58:00;10.43;;;9.90;;
489;SDS011;231;48.120;11.576;2022-12-07T03:00:48;10.40;;;9.90;;
489;SDS011;231;48.120;11.576;2022-12-07T03:03:21;9.90;;;9.40;;
489;SDS011;231;48.120;11.576;2022-12-07T03:05:52;11.70;;;10.70;;
489;SDS011;231;48.120;11.576;2022-12-07T03:08:31;10.70;;;10.10;;
489;SDS011;231;48.120;11.576;2022-12-07T03:11:10;10.50;;;9.97;;
489;SDS011;231;48.120;11.576;2022-12-07T03:13:41;10.43;;;9.90;;
489;SDS011;231;48.120;11.576;2022-12-07T03:16:15;10.30;;;9.80;;
489;SDS011;231;48.120;11.576;2022-12-07T03:18:46;11.27;;;10.70;;
489;SDS011;231;48.120;11.576;2022-12-07T03:21:17;12.00;;;11.40;;
489;SDS011;231;48.120;11.576;2022-12-07T03:23:49;12.03;;;10.93;;
489;SDS011;231;48.120;11.576;2022-12-07T03:26:18;11.10;;;10.50;;
489;SDS011;231;48.120;11.576;2022-12-07T03:28:48;10.67;;;10.07;;
489;SDS011;231;48.120;11.576;2022-12-07T03:31:21;11.40;;;10.80;;
489;SDS011;231;48.120;11.576;2022-12-07T03:33:54;11.53;;;10.93;;
489;SDS011;231;48.120;11.576;2022-12-07T03:36:27;9.87;;;9.37;;
489;SDS011;231;48.120;11.576;2022-12-07T03:39:00;12.00;;;10.00;;
489;SDS011;231;48.120;11.576;2022-12-07T03:41:33;10.90;;;10.33;;
489;SDS011;231;48.120;11.576;2022-12-07T03:44:02;11.60;;;11.00;;
489;SDS011;231;48.120;11.576;2022-12-07T03:46:34;11.10;;;10.50;;
489;SDS011;231;48.120;11.576;2022-12-07T03:49:10;10.77;;;10.17;;
489;SDS011;231;48.120;11.576;2022-12-07T03:51:43;11.30;;;10.70;;
489;SDS011;231;48.120;11.576;2022-12-07T03:54:17;13.23;;;12.53;;
489;SDS011;231;48.120;11.576;2022-12-07T03:56:47;12.63;;;11.97;;
489;SDS011;231;48.120;11.576;2022-12-07T03:59:16;11.10;;;10.50;;
489;SDS011;231;48.120;11.576;2022-12-07T04:01:51;11.50;;;10.90;;
489;SDS011;231;48.120;11.576;2022-12-07T04:04:19;11.80;;;10.60;;
489;SDS011;231;48.120;11.576;2022-12-07T04:06:46;12.90;;;12.20;;
489;SDS011;231;48.120;11.576;2022-12-07T04:09:13;13.87;;;13.17;;
489;SDS011;231;48.120;11.576;2022-12-07T04:11:40;12.70;;;11.70;;
489;SDS011;231;48.120;11.576;2022-12-07T04:14:07;13.00;;;12.30;;
489;SDS011;231;48.120;11.576;2022-12-07T04:16:47;12.33;;;11.70;;
489;SDS011;231;48.120;11.576;2022-12-07T04:19:16;11.83;;;11.03;;
489;SDS011;231;48.120;11.576;2022-12-07T04:21:44;14.77;;;13.10;;
489;SDS011;231;48.120;11.576;2022-12-07T04:24:12;12.80;;;12.07;;
489;SDS011;231;48.120;11.576;2022-12-07T04:26:40;14.40;;;12.60;;
489;SDS011;231;48.120;11.576;2022-12-07T04:29:08;12.77;;;12.07;;
489;SDS011;231;48.120;11.576;2022-12-07T04:31:35;12.20;;;11.60;;
489;SDS011;231;48.120;11.576;2022-12-07T04:34:04;14.63;;;13.67;;
489;SDS011;231;48.120;11.576;2022-12-07T04:36:39;12.20;;;11.03;;
489;SDS011;231;48.120;11.576;2022-12-07T04:39:07;12.77;;;12.13;;
489;SDS011;231;48.120;11.576;2022-12-07T04:41:34;12.57;;;11.70;;
489;SDS011;231;48.120;11.576;2022-12-07T04:44:02;14.27;;;12.83;;
489;SDS011;231;48.120;11.576;2022-12-07T04:46:32;12.30;;;11.77;;
489;SDS011;231;48.120;11.576;2022-12-07T04:48:59;14.07;;;12.53;;
489;SDS011;231;48.120;11.576;2022-12-07T04:51:28;13.23;;;12.53;;
489;SDS011;231;48.120;11.576;2022-12-07T04:54:03;11.70;;;11.10;;
489;SDS011;231;48.120;11.576;2022-12-07T04:56:31;15.27;;;13.93;;
489;SDS011;231;48.120;11.576;2022-12-07T04:59:00;14.30;;;12.70;;
489;SDS011;231;48.120;11.576;2022-12-07T05:01:28;14.77;;;14.00;;
489;SDS011;231;48.120;11.576;2022-12-07T05:03:55;13.90;;;12.50;;
489;SDS011;231;48.120;11.576;2022-12-07T05:06:22;13.03;;;12.33;;
489;SDS011;231;48.120;11.576;2022-12-07T05:08:51;16.10;;;12.80;;
489;SDS011;231;48.120;11.576;2022-12-07T05:11:18;12.30;;;11.50;;
489;SDS011;231;48.120;11.576;2022-12-07T05:14:03;13.90;;;12.40;;
489;SDS011;231;48.120;11.576;2022-12-07T05:16:32;13.60;;;12.90;;
489;SDS011;231;48.120;11.576;2022-12-07T05:18:59;13.60;;;12.80;;
489;SDS011;231;48.120;11.576;2022-12-07T05:21:26;13.93;;;13.23;;
489;SDS011;231;48.120;11.576;2022-12-07T05:23:54;13.20;;;12.50;;
489;SDS011;231;48.120;11.576;2022-12-07T05:26:21;13.20;;;12.50;;
489;SDS011;231;48.120;11.576;2022-12-07T05:28:49;13.00;;;12.07;;
489;SDS011;231;48.120;11.576;2022-12-07T05:31:17;13.53;;;11.70;;
489;SDS011;231;48.120;11.576;2022-12-07T05:33:44;17.10;;;15.00;;
489;SDS011;231;48.120;11.576;2022-12-07T05:36:11;12.60;;;11.93;;
489;SDS011;231;48.120;11.576;2022-12-07T05:38:38;13.67;;;12.97;;
489;SDS011;231;48.120;11.576;2022-12-07T05:41:07;14.40;;;12.90;;
489;SDS011;231;48.120;11.576;2022-12-07T05:43:56;14.97;;;12.57;;
489;SDS011;231;48.120;11.576;2022-12-07T05:46:23;11.60;;;11.00;;
489;SDS011;231;48.120;11.576;2022-12-07T05:48:50;11.80;;;11.20;;
489;SDS011;231;48.120;11.576;2022-12-07T05:51:17;15.70;;;14.20;;
489;SDS011;231;48.120;11.576;2022-12-07T05:53:45;12.83;;;12.13;;
489;SDS011;231;48.120;11.576;2022-12-07T05:56:13;14.27;;;13.40;;
489;SDS011;231;48.120;11.576;2022-12-07T05:58:48;14.10;;;13.20;;
489;SDS011;231;48.120;11.576;2022-12-07T06:01:32;13.10;;;11.77;;
489;SDS011;231;48.120;11.576;2022-12-07T06:03:59;13.40;;;11.87;;
489;SDS011;231;48.120;11.576;2022-12-07T06:06:26;15.40;;;14.40;;
489;SDS011;231;48.120;11.576;2022-12-07T06:08:53;13.43;;;12.30;;
489;SDS011;231;48.120;11.576;2022-12-07T06:11:22;14.40;;;13.47;;
489;SDS011;231;48.120;11.576;2022-12-07T06:14:06;16.40;;;14.50;;
489;SDS011;231;48.120;11.576;2022-12-07T06:16:33;16.80;;;13.40;;
489;SDS011;231;48.120;11.576;2022-12-07T06:19:00;14.30;;;13.60;;
489;SDS011;231;48.120;11.576;2022-12-07T06:21:27;14.00;;;13.20;;
489;SDS011;231;48.120;11.576;2022-12-07T06:23:54;16.33;;;15.13;;
489;SDS011;231;48.120;11.576;2022-12-07T06:26:23;15.73;;;13.40;;
489;SDS011;231;48.120;11.576;2022-12-07T06:28:59;15.40;;;13.47;;
489;SDS011;231;48.120;11.576;2022-12-07T06:31:26;14.93;;;13.70;;
489;SDS011;231;48.120;11.576;2022-12-07T06:33:56;15.47;;;13.20;;
489;SDS011;231;48.120;11.576;2022-12-07T06:36:24;14.17;;;12.13;;
489;SDS011;231;48.120;11.576;2022-12-07T06:38:51;19.00;;;15.70;;
489;SDS011;231;48.120;11.576;2022-12-07T06:41:18;17.60;;;15.43;;
489;SDS011;231;48.120;11.576;2022-12-07T06:43:47;16.20;;;15.40;;
489;SDS011;231;48.120;11.576;2022-12-07T06:46:14;15.57;;;14.77;;
489;SDS011;231;48.120;11.576;2022-12-07T06:48:42;19.17;;;15.03;;
489;SDS011;231;48.120;11.576;2022-12-07T06:51:09;16.53;;;14.73;;
489;SDS011;231;48.120;11.576;2022-12-07T06:53:36;14.27;;;13.57;;
489;SDS011;231;48.120;11.576;2022-12-07T06:56:06;14.60;;;12.83;;
489;SDS011;231;48.120;11.576;2022-12-07T06:58:33;13.87;;;12.50;;
489;SDS011;231;48.120;11.576;2022-12-07T07:01:01;14.63;;;13.73;;
489;SDS011;231;48.120;11.576;2022-12-07T07:03:28;14.97;;;13.97;;
489;SDS011;231;48.120;11.576;2022-12-07T07:05:55;14.57;;;13.87;;
489;SDS011;231;48.120;11.576;2022-12-07T07:08:22;15.60;;;14.67;;
489;SDS011;231;48.120;11.576;2022-12-07T07:10:49;18.03;;;15.33;;
489;SDS011;231;48.120;11.576;2022-12-07T07:13:17;18.53;;;16.27;;
489;SDS011;231;48.120;11.576;2022-12-07T07:15:44;20.63;;;16.93;;
489;SDS011;231;48.120;11.576;2022-12-07T07:18:12;20.80;;;17.80;;
489;SDS011;231;48.120;11.576;2022-12-07T07:20:39;12.63;;;11.13;;
489;SDS011;231;48.120;11.576;2022-12-07T07:23:06;17.53;;;14.90;;
489;SDS011;231;48.120;11.576;2022-12-07T07:25:33;13.00;;;12.40;;
489;SDS011;231;48.120;11.576;2022-12-07T07:28:01;15.00;;;12.20;;
489;SDS011;231;48.120;11.576;2022-12-07T07:30:28;19.53;;;16.87;;
489;SDS011;231;48.120;11.576;2022-12-07T07:32:56;13.67;;;12.97;;
489;SDS011;231;48.120;11.576;2022-12-07T07:35:25;16.50;;;14.57;;
489;SDS011;231;48.120;11.576;2022-12-07T07:37:52;14.87;;;14.10;;
489;SDS011;231;48.120;11.576;2022-12-07T07:40:21;22.83;;;15.97;;
489;SDS011;231;48.120;11.576;2022-12-07T07:42:48;15.67;;;14.87;;
489;SDS011;231;48.120;11.576;2022-12-07T07:45:15;16.40;;;15.00;;
489;SDS011;231;48.120;11.576;2022-12-07T07:47:43;17.23;;;16.13;;
489;SDS011;231;48.120;11.576;2022-12-07T07:50:10;14.50;;;13.80;;
489;SDS011;231;48.120;11.576;2022-12-07T07:52:38;12.40;;;11.80;;
489;SDS011;231;48.120;11.576;2022-12-07T07:55:06;16.37;;;14.60;;
489;SDS011;231;48.120;11.576;2022-12-07T07:57:34;14.90;;;14.10;;
489;SDS011;231;48.120;11.576;2022-12-07T08:00:06;16.43;;;15.43;;
489;SDS011;231;48.120;11.576;2022-12-07T08:02:34;15.67;;;14.03;;
489;SDS011;231;48.120;11.576;2022-12-07T08:05:02;14.90;;;14.10;;
489;SDS011;231;48.120;11.576;2022-12-07T08:07:29;18.93;;;14.27;;
489;SDS011;231;48.120;11.576;2022-12-07T08:09:57;13.90;;;12.70;;
489;SDS011;231;48.120;11.576;2022-12-07T08:12:24;16.43;;;14.77;;
489;SDS011;231;48.120;11.576;2022-12-07T08:14:52;14.50;;;13.10;;
489;SDS011;231;48.120;11.576;2022-12-07T08:17:21;16.80;;;14.53;;
489;SDS011;231;48.120;11.576;2022-12-07T08:19:48;20.77;;;15.97;;
489;SDS011;231;48.120;11.576;2022-12-07T08:22:15;14.33;;;13.60;;
489;SDS011;231;48.120;11.576;2022-12-07T08:24:42;21.73;;;17.00;;
489;SDS011;231;48.120;11.576;2022-12-07T08:27:11;15.07;;;14.27;;
489;SDS011;231;48.120;11.576;2022-12-07T08:29:38;19.50;;;16.00;;
489;SDS011;231;48.120;11.576;2022-12-07T08:32:05;16.63;;;15.80;;
489;SDS011;231;48.120;11.576;2022-12-07T08:34:32;16.63;;;15.70;;
489;SDS011;231;48.120;11.576;2022-12-07T08:37:00;17.70;;;16.80;;
489;SDS011;231;48.120;11.576;2022-12-07T08:39:27;15.90;;;15.10;;
489;SDS011;231;48.120;11.576;2022-12-07T08:41:54;17.07;;;16.13;;
489;SDS011;231;48.120;11.576;2022-12-07T08:44:23;16.40;;;15.60;;
489;SDS011;231;48.120;11.576;2022-12-07T08:46:50;18.90;;;17.63;;
489;SDS011;231;48.120;11.576;2022-12-07T08:49:32;17.07;;;14.87;;
489;SDS011;231;48.120;11.576;2022-12-07T08:52:02;20.00;;;17.07;;
489;SDS011;231;48.120;11.576;2022-12-07T08:54:31;17.50;;;15.37;;
489;SDS011;231;48.120;11.576;2022-12-07T08:57:01;22.53;;;16.17;;
489;SDS011;231;48.120;11.576;2022-12-07T08:59:30;17.53;;;16.63;;
489;SDS011;231;48.120;11.576;2022-12-07T09:01:59;18.10;;;16.80;;
489;SDS011;231;48.120;11.576;2022-12-07T09:04:26;17.90;;;14.87;;
489;SDS011;231;48.120;11.576;2022-12-07T09:06:53;16.10;;;14.63;;
489;SDS011;231;48.120;11.576;2022-12-07T09:09:23;15.60;;;14.33;;
489;SDS011;231;48.120;11.576;2022-12-07T09:11:50;15.57;;;14.77;;
489;SDS011;231;48.120;11.576;2022-12-07T09:14:17;15.60;;;14.80;;
489;SDS011;231;48.120;11.576;2022-12-07T09:16:46;17.30;;;14.80;;
489;SDS011;231;48.120;11.576;2022-12-07T09:19:13;17.83;;;15.63;;
489;SDS011;231;48.120;11.576;2022-12-07T09:21:40;14.00;;;13.20;;
489;SDS011;231;48.120;11.576;2022-12-07T09:24:07;15.27;;;14.40;;
489;SDS011;231;48.120;11.576;2022-12-07T09:26:37;15.37;;;14.57;;
489;SDS011;231;48.120;11.576;2022-12-07T09:29:05;17.57;;;14.97;;
489;SDS011;231;48.120;11.576;2022-12-07T09:31:36;15.20;;;14.07;;
489;SDS011;231;48.120;11.576;2022-12-07T09:34:21;16.00;;;14.67;;
489;SDS011;231;48.120;11.576;2022-12-07T09:37:03;15.83;;;14.30;;
489;SDS011;231;48.120;11.576;2022-12-07T09:39:31;15.40;;;14.60;;
489;SDS011;231;48.120;11.576;2022-12-07T09:41:58;15.50;;;13.97;;
489;SDS011;231;48.120;11.576;2022-12-07T09:44:39;14.47;;;13.73;;
489;SDS011;231;48.120;11.576;2022-12-07T09:47:07;14.03;;;13.33;;
489;SDS011;231;48.120;11.576;2022-12-07T09:52:53;14.33;;;13.63;;
489;SDS011;231;48.120;11.576;2022-12-07T09:55:33;15.77;;;12.73;;
489;SDS011;231;48.120;11.576;2022-12-07T09:58:09;13.07;;;12.37;;
489;SDS011;231;48.120;11.576;2022-12-07T10:00:43;13.30;;;12.60;;
489;SDS011;231;48.120;11.576;2022-12-07T10:03:12;12.90;;;12.20;;
489;SDS011;231;48.120;11.576;2022-12-07T10:05:42;13.40;;;12.70;;
489;SDS011;231;48.120;11.576;2022-12-07T10:08:12;17.70;;;11.70;;
489;SDS011;231;48.120;11.576;2022-12-07T10:10:42;12.17;;;11.57;;
489;SDS011;231;48.120;11.576;2022-12-07T10:13:12;10.97;;;10.37;;
489;SDS011;231;48.120;11.576;2022-12-07T10:15:40;11.70;;;11.10;;
489;SDS011;231;48.120;11.576;2022-12-07T10:18:17;11.43;;;10.83;;
489;SDS011;231;48.120;11.576;2022-12-07T10:21:04;11.80;;;11.20;;
489;SDS011;231;48.120;11.576;2022-12-07T10:23:36;11.60;;;11.00;;
489;SDS011;231;48.120;11.576;2022-12-07T10:26:25;11.97;;;11.10;;
489;SDS011;231;48.120;11.576;2022-12-07T10:28:55;11.00;;;10.40;;
489;SDS011;231;48.120;11.576;2022-12-07T10:31:32;11.03;;;10.43;;
489;SDS011;231;48.120;11.576;2022-12-07T10:34:14;12.13;;;10.17;;
489;SDS011;231;48.120;11.576;2022-12-07T10:37:17;9.63;;;8.63;;
489;SDS011;231;48.120;11.576;2022-12-07T10:39:53;10.20;;;9.47;;
489;SDS011;231;48.120;11.576;2022-12-07T10:42:22;9.43;;;8.93;;
489;SDS011;231;48.120;11.576;2022-12-07T10:45:06;8.93;;;8.43;;
489;SDS011;231;48.120;11.576;2022-12-07T10:47:35;9.60;;;8.37;;
489;SDS011;231;48.120;11.576;2022-12-07T10:50:14;9.30;;;8.80;;
489;SDS011;231;48.120;11.576;2022-12-07T10:56:03;9.60;;;8.73;;
489;SDS011;231;48.120;11.576;2022-12-07T10:58:49;9.20;;;8.70;;
489;SDS011;231;48.120;11.576;2022-12-07T11:01:28;11.97;;;8.70;;
489;SDS011;231;48.120;11.576;2022-12-07T11:04:18;10.03;;;9.53;;
489;SDS011;231;48.120;11.576;2022-12-07T11:06:52;11.93;;;8.67;;
489;SDS011;231;48.120;11.576;2022-12-07T11:09:33;9.50;;;8.53;;
489;SDS011;231;48.120;11.576;2022-12-07T11:12:25;12.53;;;8.27;;
489;SDS011;231;48.120;11.576;2022-12-07T11:15:04;8.33;;;7.90;;
489;SDS011;231;48.120;11.576;2022-12-07T11:17:42;11.33;;;8.67;;
489;SDS011;231;48.120;11.576;2022-12-07T11:20:29;7.90;;;7.53;;
489;SDS011;231;48.120;11.576;2022-12-07T11:23:18;8.57;;;7.73;;
489;SDS011;231;48.120;11.576;2022-12-07T11:25:59;6.50;;;6.10;;
489;SDS011;231;48.120;11.576;2022-12-07T11:28:35;9.00;;;8.07;;
489;SDS011;231;48.120;11.576;2022-12-07T11:31:16;11.00;;;9.20;;
489;SDS011;231;48.120;11.576;2022-12-07T11:33:49;8.23;;;6.90;;
489;SDS011;231;48.120;11.576;2022-12-07T11:36:35;7.17;;;6.67;;
489;SDS011;231;48.120;11.576;2022-12-07T11:39:04;9.20;;;7.80;;
489;SDS011;231;48.120;11.576;2022-12-07T11:41:43;15.10;;;7.10;;
489;SDS011;231;48.120;11.576;2022-12-07T11:44:16;7.93;;;7.57;;
489;SDS011;231;48.120;11.576;2022-12-07T11:46:53;8.23;;;7.77;;
489;SDS011;231;48.120;11.576;2022-12-07T11:49:26;9.20;;;7.50;;
489;SDS011;231;48.120;11.576;2022-12-07T11:52:05;7.37;;;7.00;;
489;SDS011;231;48.120;11.576;2022-12-07T11:54:44;10.00;;;8.97;;
489;SDS011;231;48.120;11.576;2022-12-07T11:57:16;7.93;;;7.10;;
489;SDS011;231;48.120;11.576;2022-12-07T11:59:47;6.93;;;6.53;;
489;SDS011;231;48.120;11.576;2022-12-07T12:02:18;6.43;;;6.03;;
489;SDS011;231;48.120;11.576;2022-12-07T12:04:51;8.87;;;7.00;;
489;SDS011;231;48.120;11.576;2022-12-07T12:07:25;6.67;;;6.27;;
489;SDS011;231;48.120;11.576;2022-12-07T12:09:54;7.43;;;7.03;;
489;SDS011;231;48.120;11.576;2022-12-07T12:12:31;6.83;;;6.43;;
489;SDS011;231;48.120;11.576;2022-12-07T12:15:19;7.87;;;7.20;;
489;SDS011;231;48.120;11.576;2022-12-07T12:18:00;7.53;;;6.80;;
489;SDS011;231;48.120;11.576;2022-12-07T12:20:43;14.13;;;7.73;;
489;SDS011;231;48.120;11.576;2022-12-07T12:23:14;7.20;;;6.80;;
489;SDS011;231;48.120;11.576;2022-12-07T12:25:45;8.60;;;7.57;;
489;SDS011;231;48.120;11.576;2022-12-07T12:28:20;9.87;;;8.60;;
489;SDS011;231;48.120;11.576;2022-12-07T12:33:38;9.30;;;8.70;;
489;SDS011;231;48.120;11.576;2022-12-07T12:36:18;8.13;;;7.50;;
489;SDS011;231;48.120;11.576;2022-12-07T12:38:49;8.70;;;8.20;;
489;SDS011;231;48.120;11.576;2022-12-07T12:44:40;10.83;;;8.30;;
489;SDS011;231;48.120;11.576;2022-12-07T12:47:42;8.30;;;7.90;;
489;SDS011;231;48.120;11.576;2022-12-07T12:50:25;9.17;;;8.60;;
489;SDS011;231;48.120;11.576;2022-12-07T12:55:50;10.33;;;9.40;;
489;SDS011;231;48.120;11.576;2022-12-07T12:58:46;11.20;;;10.37;;
489;SDS011;231;48.120;11.576;2022-12-07T13:04:14;11.20;;;9.13;;
489;SDS011;231;48.120;11.576;2022-12-07T13:06:58;11.20;;;9.87;;
489;SDS011;231;48.120;11.576;2022-12-07T13:09:25;9.50;;;9.03;;
489;SDS011;231;48.120;11.576;2022-12-07T13:11:58;10.30;;;9.80;;
489;SDS011;231;48.120;11.576;2022-12-07T13:14:42;10.40;;;9.87;;
489;SDS011;231;48.120;11.576;2022-12-07T13:23:30;10.73;;;9.70;;
489;SDS011;231;48.120;11.576;2022-12-07T13:28:49;10.70;;;8.80;;
489;SDS011;231;48.120;11.576;2022-12-07T13:31:27;8.90;;;8.20;;
489;SDS011;231;48.120;11.576;2022-12-07T13:34:00;13.23;;;9.20;;
489;SDS011;231;48.120;11.576;2022-12-07T13:36:29;10.60;;;9.50;;
489;SDS011;231;48.120;11.576;2022-12-07T13:39:10;10.30;;;9.80;;
489;SDS011;231;48.120;11.576;2022-12-07T13:41:43;10.20;;;9.30;;
489;SDS011;231;48.120;11.576;2022-12-07T13:44:11;9.37;;;8.87;;
489;SDS011;231;48.120;11.576;2022-12-07T13:46:44;10.77;;;9.50;;
489;SDS011;231;48.120;11.576;2022-12-07T13:49:18;11.70;;;9.50;;
489;SDS011;231;48.120;11.576;2022-12-07T13:51:47;11.10;;;9.70;;
489;SDS011;231;48.120;11.576;2022-12-07T13:54:15;9.30;;;8.80;;
489;SDS011;231;48.120;11.576;2022-12-07T13:56:42;9.67;;;8.70;;
489;SDS011;231;48.120;11.576;2022-12-07T13:59:13;10.87;;;8.17;;
489;SDS011;231;48.120;11.576;2022-12-07T14:01:42;8.80;;;8.03;;
489;SDS011;231;48.120;11.576;2022-12-07T14:04:17;8.67;;;8.17;;
489;SDS011;231;48.120;11.576;2022-12-07T14:06:51;9.90;;;7.70;;
489;SDS011;231;48.120;11.576;2022-12-07T14:09:19;11.77;;;10.30;;
489;SDS011;231;48.120;11.576;2022-12-07T14:11:47;7.80;;;7.43;;
489;SDS011;231;48.120;11.576;2022-12-07T14:14:17;9.87;;;8.30;;
489;SDS011;231;48.120;11.576;2022-12-07T14:16:55;9.73;;;7.90;;
489;SDS011;231;48.120;11.576;2022-12-07T14:19:47;10.23;;;7.80;;
489;SDS011;231;48.120;11.576;2022-12-07T14:22:26;9.73;;;7.93;;
489;SDS011;231;48.120;11.576;2022-12-07T14:25:01;9.33;;;8.87;;
489;SDS011;231;48.120;11.576;2022-12-07T14:27:47;10.17;;;9.00;;
489;SDS011;231;48.120;11.576;2022-12-07T14:30:21;11.43;;;10.00;;
489;SDS011;231;48.120;11.576;2022-12-07T14:32:50;9.67;;;9.20;;
489;SDS011;231;48.120;11.576;2022-12-07T14:35:21;19.47;;;8.53;;
489;SDS011;231;48.120;11.576;2022-12-07T14:37:48;8.47;;;8.00;;
489;SDS011;231;48.120;11.576;2022-12-07T14:40:17;9.93;;;9.40;;
489;SDS011;231;48.120;11.576;2022-12-07T14:42:46;10.67;;;9.23;;
489;SDS011;231;48.120;11.576;2022-12-07T14:45:17;10.00;;;8.87;;
489;SDS011;231;48.120;11.576;2022-12-07T14:47:46;11.30;;;10.37;;
489;SDS011;231;48.120;11.576;2022-12-07T14:50:13;9.40;;;8.00;;
489;SDS011;231;48.120;11.576;2022-12-07T14:52:44;8.97;;;7.50;;
489;SDS011;231;48.120;11.576;2022-12-07T14:55:15;10.73;;;8.50;;
489;SDS011;231;48.120;11.576;2022-12-07T14:57:46;9.43;;;8.93;;
489;SDS011;231;48.120;11.576;2022-12-07T15:00:13;9.83;;;9.00;;
489;SDS011;231;48.120;11.576;2022-12-07T15:02:42;10.00;;;9.50;;
489;SDS011;231;48.120;11.576;2022-12-07T15:05:09;8.73;;;8.23;;
489;SDS011;231;48.120;11.576;2022-12-07T15:07:46;11.20;;;8.20;;
489;SDS011;231;48.120;11.576;2022-12-07T15:10:15;10.57;;;9.20;;
489;SDS011;231;48.120;11.576;2022-12-07T15:12:44;11.27;;;10.53;;
489;SDS011;231;48.120;11.576;2022-12-07T15:15:11;11.20;;;10.60;;
489;SDS011;231;48.120;11.576;2022-12-07T15:17:39;10.77;;;9.40;;
489;SDS011;231;48.120;11.576;2022-12-07T15:20:07;11.40;;;10.33;;
489;SDS011;231;48.120;11.576;2022-12-07T15:22:37;9.40;;;8.73;;
489;SDS011;231;48.120;11.576;2022-12-07T15:25:06;12.17;;;10.00;;
489;SDS011;231;48.120;11.576;2022-12-07T15:27:35;12.20;;;10.37;;
489;SDS011;231;48.120;11.576;2022-12-07T15:30:02;9.83;;;8.87;;
489;SDS011;231;48.120;11.576;2022-12-07T15:32:29;9.83;;;9.30;;
489;SDS011;231;48.120;11.576;2022-12-07T15:34:56;10.73;;;9.13;;
489;SDS011;231;48.120;11.576;2022-12-07T15:37:23;10.70;;;9.73;;
489;SDS011;231;48.120;11.576;2022-12-07T15:39:50;9.77;;;8.93;;
489;SDS011;231;48.120;11.576;2022-12-07T15:42:18;10.30;;;9.83;;
489;SDS011;231;48.120;11.576;2022-12-07T15:44:45;12.30;;;10.50;;
489;SDS011;231;48.120;11.576;2022-12-07T15:47:30;11.27;;;10.67;;
489;SDS011;231;48.120;11.576;2022-12-07T15:49:57;11.50;;;10.30;;
489;SDS011;231;48.120;11.576;2022-12-07T15:52:24;12.47;;;11.10;;
489;SDS011;231;48.120;11.576;2022-12-07T15:54:51;15.03;;;12.17;;
489;SDS011;231;48.120;11.576;2022-12-07T15:57:19;11.97;;;11.37;;
489;SDS011;231;48.120;11.576;2022-12-07T15:59:46;11.13;;;10.57;;
489;SDS011;231;48.120;11.576;2022-12-07T16:02:13;13.23;;;11.50;;
489;SDS011;231;48.120;11.576;2022-12-07T16:04:41;13.20;;;12.50;;